Accueil
METAR-TAF:

METAR-TAF

Aéroports :

Aéroport de Strasbourg-Entzheim

Strasbourg, France

latitude: 48-33N, longitude: 007-38E, altitude: 153 m

Observation

Le bulletin a été fait il y a 24 minutes, à 07:00 UTC
Vent 7 kt de nord/nord-est
Température 6°C
Humidité 75%
Pression 1023 hPa
Visibilité 10 km ou plus
Quelques nuages à une hauteur de 4100 ft
Nuages épars à une hauteur de 5200 ft

METAR: LFST 170700Z AUTO 02007KT 9999 FEW041 SCT052 06/02 Q1023 NOSIG

Heure: 09:24 (07:24 UTC)

Prévision

Le bulletin a été fait il y a 2 heures et 24 minutes, à 05:00 UTC
Prévision valable du 17 à 06 UTC au 18 à 06 UTC
Vent 7 kt de nord
Visibilité 10 km ou plus
Nuages fragmentés à une hauteur de 5000 ft
Temporairement
du 17 à 12 UTC au 17 à 20 UTC
Vent 15 kt de nord/nord-est avec des rafales jusqu'à 25 kt

TAF: LFST 170500Z 1706/1806 01007KT 9999 BKN050 TEMPO 1712/1720 03015G25KT

Observations et prévisions météorologiques de plus de 4000 aéroports (messages METAR et TAF).

Les stations disponibles sont représentées par des disques jaunes et rouges sur la carte.

Passer la souris dessus pour voir le nom de la station.

Cliquer dessus pour voir les observations et prévisions météorologiques.

Pour changer de carte: cliquez sur les boutons verts avec une croix noire pour zoomer, sur le bouton vert avec un tiret pour effectuer un zoom arrière, ou sur les flèches vertes pour les cartes adjacentes.


METAR-TAF: